Aegean Navigator — SWBI — position and weather

sailwx.info

Track history (hours):
 
Tides and Currents Weather Stations Pressure Air Temp Water Temp Dewpoint Dewpoint Depression Visibility Wind Speed Wind Dir Waves Ship Positions

Aegean Navigator

Last reported at 2015-Apr-28 06:16 UTC. Time now 2015-Apr-28 06:51 UTC.
Position N 44°38' E 037°36'.

Length 274 m; draft 9 m.

Type: Tanker. MMSI: 240634000.

Date/timePositionNaut miles runAvg speedWind from/ knotsBaromVisibWave heightAir tempDewpointWater temp
2015-Apr-28 06:16N 44°38' E 037°36'0 0.0
2015-Apr-28 05:29N 44°38' E 037°36'0 0.0
2015-Apr-28 04:27N 44°38' E 037°37'0 0.0
2015-Apr-28 03:13N 44°38' E 037°36'0 0.0
2015-Apr-28 02:33N 44°38' E 037°36'0 0.0
2015-Apr-28 01:34N 44°38' E 037°37'0 0.0
2015-Apr-28 00:32N 44°38' E 037°37'1 0.2
2015-Apr-27 21:33N 44°37' E 037°36'3 2.9
2015-Apr-27 20:34N 44°35' E 037°38'10 9.6
2015-Apr-27 19:33N 44°34' E 037°52'2 2.3
2015-Apr-27 18:32N 44°34' E 037°55'0 0.0
2015-Apr-27 17:32N 44°34' E 037°55'0 0.0
2015-Apr-27 16:32N 44°34' E 037°55'0 0.0
2015-Apr-27 15:32N 44°34' E 037°55'0 0.0
2015-Apr-27 14:32N 44°34' E 037°55'0 0.0
2015-Apr-27 13:32N 44°34' E 037°55'0 0.0
2015-Apr-27 12:32N 44°34' E 037°55'0 0.0
2015-Apr-27 11:32N 44°34' E 037°55'0 0.0
2015-Apr-27 10:32N 44°34' E 037°55'0 0.0
2015-Apr-27 09:32N 44°34' E 037°55'0 0.0
2015-Apr-27 08:29N 44°34' E 037°55'0 0.0
2015-Apr-27 07:32N 44°34' E 037°55'0 0.0
2015-Apr-27 06:32N 44°34' E 037°55'0 0.0
2015-Apr-27 05:32N 44°34' E 037°55'0 0.0
2015-Apr-27 04:32N 44°34' E 037°55'0 0.0
2015-Apr-27 03:32N 44°34' E 037°55'0 0.0
2015-Apr-27 02:32N 44°34' E 037°55'0 0.0
2015-Apr-27 01:32N 44°34' E 037°55'0 0.1
2015-Apr-27 00:32N 44°34' E 037°55'0 0.0
2015-Apr-26 23:32N 44°34' E 037°55'0 0.0
2015-Apr-26 22:29N 44°34' E 037°55'0 0.0
2015-Apr-26 21:32N 44°34' E 037°55'0 0.0
2015-Apr-26 20:32N 44°34' E 037°55'0 0.0
2015-Apr-26 19:32N 44°34' E 037°55'0 0.0
2015-Apr-26 18:32N 44°34' E 037°55'0 0.0
2015-Apr-26 17:29N 44°34' E 037°55'0 0.0
2015-Apr-26 16:32N 44°34' E 037°55'0 0.1
2015-Apr-26 15:32N 44°34' E 037°55'0 0.0
2015-Apr-26 14:32N 44°34' E 037°55'0 0.0
2015-Apr-26 13:32N 44°34' E 037°55'0 0.0
2015-Apr-26 12:32N 44°34' E 037°55'0 0.0
2015-Apr-26 11:32N 44°34' E 037°55'0 0.1
2015-Apr-26 10:32N 44°34' E 037°55'0 0.0
2015-Apr-26 09:32N 44°34' E 037°55'0 0.0
2015-Apr-26 08:32N 44°34' E 037°55'0 0.0
2015-Apr-26 07:32N 44°34' E 037°55'0 0.0
2015-Apr-26 06:32N 44°34' E 037°55'0 0.0
2015-Apr-26 05:32N 44°34' E 037°55'0 0.0
2015-Apr-26 04:32N 44°34' E 037°55'0 0.0
2015-Apr-26 03:32N 44°34' E 037°55'0 0.0
2015-Apr-26 02:32N 44°34' E 037°55'0 0.0
2015-Apr-26 01:32N 44°34' E 037°55'0 0.0
2015-Apr-26 00:32N 44°34' E 037°55'0 0.0
2015-Apr-25 23:32N 44°34' E 037°55'0 0.4
2015-Apr-25 22:34N 44°34' E 037°54'6 5.7
2015-Apr-25 21:33N 44°36' E 037°47'3 2.9
2015-Apr-25 20:33N 44°37' E 037°43'1 0.6
2015-Apr-25 19:34N 44°37' E 037°43'1 1.1
2015-Apr-25 18:33N 44°36' E 037°42'1010.2
2015-Apr-25 17:33N 44°27' E 037°36'1313.5
2015-Apr-25 16:33N 44°21' E 037°20'1313.5
2015-Apr-25 15:34N 44°15' E 037°03'1313.3
2015-Apr-25 14:34N 44°08' E 036°47'1313.2
2015-Apr-25 13:33N 44°03' E 036°30'1313.4
2015-Apr-25 12:34N 43°58' E 036°13'1313.5
2015-Apr-25 11:33N 43°52' E 035°55'1313.5
2015-Apr-25 10:33N 43°47' E 035°38'1111.5
2015-Apr-25 09:34N 43°43' E 035°24'1110.6
2015-Apr-25 08:33N 43°38' E 035°10'1010.4
2015-Apr-25 07:33N 43°35' E 034°57'1110.5
2015-Apr-25 06:33N 43°30' E 034°44'1110.6
2015-Apr-25 05:33N 43°26' E 034°30'2210.6
2015-Apr-25 03:30N 43°17' E 034°03'23110.8
2015-Apr-24 06:12N 41°29' E 029°26'3910.6
2015-Apr-24 02:33N 40°57' E 028°59'8 7.4
2015-Apr-24 01:32N 40°51' E 028°53'1 0.5
2015-Apr-24 00:33N 40°50' E 028°53'0 0.5
2015-Apr-23 23:32N 40°50' E 028°53'0 0.5
2015-Apr-23 22:33N 40°49' E 028°53'4 4.4
2015-Apr-23 21:33N 40°45' E 028°52'1 1.5
2015-Apr-23 20:33N 40°44' E 028°52'1 0.8
2015-Apr-23 19:33N 40°44' E 028°52'1 0.8
2015-Apr-23 18:31N 40°45' E 028°53'1 0.8
2015-Apr-23 17:33N 40°45' E 028°54'1 1.2
2015-Apr-23 16:33N 40°46' E 028°54'5 5.1
2015-Apr-23 15:33N 40°48' E 028°48'1211.9
2015-Apr-23 14:33N 40°49' E 028°32'14910.4
2015-Apr-23 00:13N 39°52' E 025°32'123 6.1
2015-Apr-22 04:08N 37°57' E 024°38'5210.4
2015-Apr-21 23:10N 37°12' E 024°06'425 9.1
2015-Apr-20 00:26N 36°27' E 015°18'1213.3
2015-Apr-19 23:32N 36°27' E 015°03'1313.5
2015-Apr-19 22:32N 36°28' E 014°46'1313.1
2015-Apr-19 21:33N 36°29' E 014°30'1313.1
2015-Apr-19 20:33N 36°32' E 014°14'1312.7
2015-Apr-19 19:34N 36°35' E 013°59'1312.7
2015-Apr-19 18:34N 36°39' E 013°44'1313.1
2015-Apr-19 17:34N 36°42' E 013°28'1313.5
2015-Apr-19 16:34N 36°45' E 013°12'1413.1
2015-Apr-19 15:32N 36°49' E 012°55'1513.2
2015-Apr-19 14:23N 36°52' E 012°37'1113.5
2015-Apr-19 13:33N 36°55' E 012°23'1413.8
2015-Apr-19 12:33N 36°58' E 012°07'1413.6
2015-Apr-19 11:32N 37°04' E 011°51'4314.4
2015-Apr-19 08:33N 37°24' E 011°03'9814.0
2015-Apr-19 01:33N 37°21' E 008°60'4514.0
2015-Apr-18 22:20N 37°16' E 008°04'1614.7
2015-Apr-18 21:15N 37°17' E 007°43'3914.3
2015-Apr-18 18:30N 37°20' E 006°54'1614.4
2015-Apr-18 17:24N 37°21' E 006°34'1214.2
2015-Apr-18 16:32N 37°21' E 006°19'1713.8
2015-Apr-18 15:19N 37°19' E 005°58'1513.4
2015-Apr-18 14:14N 37°18' E 005°40'913.8
2015-Apr-18 13:33N 37°17' E 005°28'1513.4
2015-Apr-18 12:26N 37°15' E 005°09'1213.6
2015-Apr-18 11:33N 37°14' E 004°54'3 0.8
2015-Apr-18 08:04N 37°15' E 004°51'  
Track history (hours):
 
Tides and Currents Weather Stations Pressure Air Temp Water Temp Dewpoint Dewpoint Depression Visibility Wind Speed Wind Dir Waves Ship Positions

Aegean Navigator

Last reported at 2015-Apr-28 06:16 UTC. Time now 2015-Apr-28 06:51 UTC.
Position N 44°38' E 037°36'.

Length 274 m; draft 9 m.

Type: Tanker. MMSI: 240634000.

Date/timePositionNaut miles runAvg speedWind from/ knotsBaromVisibWave heightAir tempDewpointWater temp
2015-Apr-28 06:16N 44°38' E 037°36'0 0.0
2015-Apr-28 05:29N 44°38' E 037°36'0 0.0
2015-Apr-28 04:27N 44°38' E 037°37'0 0.0
2015-Apr-28 03:13N 44°38' E 037°36'0 0.0
2015-Apr-28 02:33N 44°38' E 037°36'0 0.0
2015-Apr-28 01:34N 44°38' E 037°37'0 0.0
2015-Apr-28 00:32N 44°38' E 037°37'1 0.2
2015-Apr-27 21:33N 44°37' E 037°36'3 2.9
2015-Apr-27 20:34N 44°35' E 037°38'10 9.6
2015-Apr-27 19:33N 44°34' E 037°52'2 2.3
2015-Apr-27 18:32N 44°34' E 037°55'0 0.0
2015-Apr-27 17:32N 44°34' E 037°55'0 0.0
2015-Apr-27 16:32N 44°34' E 037°55'0 0.0
2015-Apr-27 15:32N 44°34' E 037°55'0 0.0
2015-Apr-27 14:32N 44°34' E 037°55'0 0.0
2015-Apr-27 13:32N 44°34' E 037°55'0 0.0
2015-Apr-27 12:32N 44°34' E 037°55'0 0.0
2015-Apr-27 11:32N 44°34' E 037°55'0 0.0
2015-Apr-27 10:32N 44°34' E 037°55'0 0.0
2015-Apr-27 09:32N 44°34' E 037°55'0 0.0
2015-Apr-27 08:29N 44°34' E 037°55'0 0.0
2015-Apr-27 07:32N 44°34' E 037°55'0 0.0
2015-Apr-27 06:32N 44°34' E 037°55'0 0.0
2015-Apr-27 05:32N 44°34' E 037°55'0 0.0
2015-Apr-27 04:32N 44°34' E 037°55'0 0.0
2015-Apr-27 03:32N 44°34' E 037°55'0 0.0
2015-Apr-27 02:32N 44°34' E 037°55'0 0.0
2015-Apr-27 01:32N 44°34' E 037°55'0 0.1
2015-Apr-27 00:32N 44°34' E 037°55'0 0.0
2015-Apr-26 23:32N 44°34' E 037°55'0 0.0
2015-Apr-26 22:29N 44°34' E 037°55'0 0.0
2015-Apr-26 21:32N 44°34' E 037°55'0 0.0
2015-Apr-26 20:32N 44°34' E 037°55'0 0.0
2015-Apr-26 19:32N 44°34' E 037°55'0 0.0
2015-Apr-26 18:32N 44°34' E 037°55'0 0.0
2015-Apr-26 17:29N 44°34' E 037°55'0 0.0
2015-Apr-26 16:32N 44°34' E 037°55'0 0.1
2015-Apr-26 15:32N 44°34' E 037°55'0 0.0
2015-Apr-26 14:32N 44°34' E 037°55'0 0.0
2015-Apr-26 13:32N 44°34' E 037°55'0 0.0
2015-Apr-26 12:32N 44°34' E 037°55'0 0.0
2015-Apr-26 11:32N 44°34' E 037°55'0 0.1
2015-Apr-26 10:32N 44°34' E 037°55'0 0.0
2015-Apr-26 09:32N 44°34' E 037°55'0 0.0
2015-Apr-26 08:32N 44°34' E 037°55'0 0.0
2015-Apr-26 07:32N 44°34' E 037°55'0 0.0
2015-Apr-26 06:32N 44°34' E 037°55'0 0.0
2015-Apr-26 05:32N 44°34' E 037°55'0 0.0
2015-Apr-26 04:32N 44°34' E 037°55'0 0.0
2015-Apr-26 03:32N 44°34' E 037°55'0 0.0
2015-Apr-26 02:32N 44°34' E 037°55'0 0.0
2015-Apr-26 01:32N 44°34' E 037°55'0 0.0
2015-Apr-26 00:32N 44°34' E 037°55'0 0.0
2015-Apr-25 23:32N 44°34' E 037°55'0 0.4
2015-Apr-25 22:34N 44°34' E 037°54'6 5.7
2015-Apr-25 21:33N 44°36' E 037°47'3 2.9
2015-Apr-25 20:33N 44°37' E 037°43'1 0.6
2015-Apr-25 19:34N 44°37' E 037°43'1 1.1
2015-Apr-25 18:33N 44°36' E 037°42'1010.2
2015-Apr-25 17:33N 44°27' E 037°36'1313.5
2015-Apr-25 16:33N 44°21' E 037°20'1313.5
2015-Apr-25 15:34N 44°15' E 037°03'1313.3
2015-Apr-25 14:34N 44°08' E 036°47'1313.2
2015-Apr-25 13:33N 44°03' E 036°30'1313.4
2015-Apr-25 12:34N 43°58' E 036°13'1313.5
2015-Apr-25 11:33N 43°52' E 035°55'1313.5
2015-Apr-25 10:33N 43°47' E 035°38'1111.5
2015-Apr-25 09:34N 43°43' E 035°24'1110.6
2015-Apr-25 08:33N 43°38' E 035°10'1010.4
2015-Apr-25 07:33N 43°35' E 034°57'1110.5
2015-Apr-25 06:33N 43°30' E 034°44'1110.6
2015-Apr-25 05:33N 43°26' E 034°30'2210.6
2015-Apr-25 03:30N 43°17' E 034°03'23110.8
2015-Apr-24 06:12N 41°29' E 029°26'3910.6
2015-Apr-24 02:33N 40°57' E 028°59'8 7.4
2015-Apr-24 01:32N 40°51' E 028°53'1 0.5
2015-Apr-24 00:33N 40°50' E 028°53'0 0.5
2015-Apr-23 23:32N 40°50' E 028°53'0 0.5
2015-Apr-23 22:33N 40°49' E 028°53'4 4.4
2015-Apr-23 21:33N 40°45' E 028°52'1 1.5
2015-Apr-23 20:33N 40°44' E 028°52'1 0.8
2015-Apr-23 19:33N 40°44' E 028°52'1 0.8
2015-Apr-23 18:31N 40°45' E 028°53'1 0.8
2015-Apr-23 17:33N 40°45' E 028°54'1 1.2
2015-Apr-23 16:33N 40°46' E 028°54'5 5.1
2015-Apr-23 15:33N 40°48' E 028°48'1211.9
2015-Apr-23 14:33N 40°49' E 028°32'14910.4
2015-Apr-23 00:13N 39°52' E 025°32'123 6.1
2015-Apr-22 04:08N 37°57' E 024°38'5210.4
2015-Apr-21 23:10N 37°12' E 024°06'425 9.1
2015-Apr-20 00:26N 36°27' E 015°18'1213.3
2015-Apr-19 23:32N 36°27' E 015°03'1313.5
2015-Apr-19 22:32N 36°28' E 014°46'1313.1
2015-Apr-19 21:33N 36°29' E 014°30'1313.1
2015-Apr-19 20:33N 36°32' E 014°14'1312.7
2015-Apr-19 19:34N 36°35' E 013°59'1312.7
2015-Apr-19 18:34N 36°39' E 013°44'1313.1
2015-Apr-19 17:34N 36°42' E 013°28'1313.5
2015-Apr-19 16:34N 36°45' E 013°12'1413.1
2015-Apr-19 15:32N 36°49' E 012°55'1513.2
2015-Apr-19 14:23N 36°52' E 012°37'1113.5
2015-Apr-19 13:33N 36°55' E 012°23'1413.8
2015-Apr-19 12:33N 36°58' E 012°07'1413.6
2015-Apr-19 11:32N 37°04' E 011°51'4314.4
2015-Apr-19 08:33N 37°24' E 011°03'9814.0
2015-Apr-19 01:33N 37°21' E 008°60'4514.0
2015-Apr-18 22:20N 37°16' E 008°04'1614.7
2015-Apr-18 21:15N 37°17' E 007°43'3914.3
2015-Apr-18 18:30N 37°20' E 006°54'1614.4
2015-Apr-18 17:24N 37°21' E 006°34'1214.2
2015-Apr-18 16:32N 37°21' E 006°19'1713.8
2015-Apr-18 15:19N 37°19' E 005°58'1513.4
2015-Apr-18 14:14N 37°18' E 005°40'913.8
2015-Apr-18 13:33N 37°17' E 005°28'1513.4
2015-Apr-18 12:26N 37°15' E 005°09'1213.6
2015-Apr-18 11:33N 37°14' E 004°54'3 0.8
2015-Apr-18 08:04N 37°15' E 004°51'  

Dump ship's entire track history